Corwin, Ohio
Current Conditions -  °F | °C
As of 4:53 AM on Thursday 18 Dec 2014 (Local Time) from KMGY Reporting Station
Overcast Overcast  
Wind Chill: 18°   Ceiling: 2500
Heat Index: 26°   Visibility: 10mi
Dew Point: 17°   Wind: 8mph
Humidity: 69%   Direction: 340°NNW
Pressure: 30.24"   Gusts: NA
Location:  39.5416°N, 84.0704°W
Report Text: KMGY 180953Z AUTO 34007KT 10SM OVC025 M03/M08 A3024 RMK AO2 SLP251 T10331083
Loading
Personal Weather Stations






























Interactive Weather Map New forecast layout! Learn more

10-Day Weather Forecast

Advertisements
Track Severe Weather on mobile